sensor_id;sensor_type;location;lat;lon;timestamp;P1;durP1;ratioP1;P2;durP2;ratioP2
33421;SDS011;19763;55.798;37.782;2024-01-16T00:01:42;21.73;;;15.95;;
33421;SDS011;19763;55.798;37.782;2024-01-16T00:04:09;22.55;;;17.15;;
33421;SDS011;19763;55.798;37.782;2024-01-16T00:06:41;20.77;;;15.65;;
33421;SDS011;19763;55.798;37.782;2024-01-16T00:09:08;20.00;;;15.73;;
33421;SDS011;19763;55.798;37.782;2024-01-16T00:11:44;19.95;;;15.15;;
33421;SDS011;19763;55.798;37.782;2024-01-16T00:14:10;22.67;;;15.85;;
33421;SDS011;19763;55.798;37.782;2024-01-16T00:16:45;21.40;;;15.75;;
33421;SDS011;19763;55.798;37.782;2024-01-16T00:19:13;20.70;;;15.20;;
33421;SDS011;19763;55.798;37.782;2024-01-16T00:21:42;17.98;;;14.30;;
33421;SDS011;19763;55.798;37.782;2024-01-16T00:24:11;18.90;;;15.00;;
33421;SDS011;19763;55.798;37.782;2024-01-16T00:26:37;18.73;;;14.48;;
33421;SDS011;19763;55.798;37.782;2024-01-16T00:29:02;20.20;;;14.27;;
33421;SDS011;19763;55.798;37.782;2024-01-16T00:31:28;17.02;;;13.70;;
33421;SDS011;19763;55.798;37.782;2024-01-16T00:33:54;17.67;;;14.00;;
33421;SDS011;19763;55.798;37.782;2024-01-16T00:36:19;18.55;;;14.93;;
33421;SDS011;19763;55.798;37.782;2024-01-16T00:38:45;16.65;;;13.50;;
33421;SDS011;19763;55.798;37.782;2024-01-16T00:41:14;18.63;;;13.88;;
33421;SDS011;19763;55.798;37.782;2024-01-16T00:43:40;14.70;;;12.57;;
33421;SDS011;19763;55.798;37.782;2024-01-16T00:46:06;18.85;;;13.15;;
33421;SDS011;19763;55.798;37.782;2024-01-16T00:48:32;18.08;;;14.13;;
33421;SDS011;19763;55.798;37.782;2024-01-16T00:50:58;18.33;;;13.48;;
33421;SDS011;19763;55.798;37.782;2024-01-16T00:53:25;16.98;;;13.65;;
33421;SDS011;19763;55.798;37.782;2024-01-16T00:55:52;20.15;;;14.60;;
33421;SDS011;19763;55.798;37.782;2024-01-16T00:58:19;17.80;;;13.77;;
33421;SDS011;19763;55.798;37.782;2024-01-16T01:00:47;15.75;;;12.68;;
33421;SDS011;19763;55.798;37.782;2024-01-16T01:03:13;18.88;;;13.20;;
33421;SDS011;19763;55.798;37.782;2024-01-16T01:05:38;17.17;;;13.95;;
33421;SDS011;19763;55.798;37.782;2024-01-16T01:08:04;18.23;;;14.32;;
33421;SDS011;19763;55.798;37.782;2024-01-16T01:10:30;17.48;;;13.85;;
33421;SDS011;19763;55.798;37.782;2024-01-16T01:12:56;18.08;;;14.27;;
33421;SDS011;19763;55.798;37.782;2024-01-16T01:15:22;18.35;;;14.27;;
33421;SDS011;19763;55.798;37.782;2024-01-16T01:17:48;18.23;;;14.27;;
33421;SDS011;19763;55.798;37.782;2024-01-16T01:20:14;17.60;;;13.50;;
33421;SDS011;19763;55.798;37.782;2024-01-16T01:22:40;18.92;;;13.30;;
33421;SDS011;19763;55.798;37.782;2024-01-16T01:25:06;18.80;;;13.30;;
33421;SDS011;19763;55.798;37.782;2024-01-16T01:27:32;17.23;;;14.18;;
33421;SDS011;19763;55.798;37.782;2024-01-16T01:29:58;17.33;;;13.65;;
33421;SDS011;19763;55.798;37.782;2024-01-16T01:32:24;17.98;;;13.60;;
33421;SDS011;19763;55.798;37.782;2024-01-16T01:34:49;20.95;;;14.50;;
33421;SDS011;19763;55.798;37.782;2024-01-16T01:37:15;18.05;;;13.85;;
33421;SDS011;19763;55.798;37.782;2024-01-16T01:39:41;18.70;;;13.68;;
33421;SDS011;19763;55.798;37.782;2024-01-16T01:42:06;16.00;;;12.93;;
33421;SDS011;19763;55.798;37.782;2024-01-16T01:44:32;18.85;;;14.40;;
33421;SDS011;19763;55.798;37.782;2024-01-16T01:46:58;16.55;;;12.90;;
33421;SDS011;19763;55.798;37.782;2024-01-16T01:49:24;17.30;;;13.32;;
33421;SDS011;19763;55.798;37.782;2024-01-16T01:51:51;18.38;;;13.93;;
33421;SDS011;19763;55.798;37.782;2024-01-16T01:54:17;16.02;;;12.95;;
33421;SDS011;19763;55.798;37.782;2024-01-16T01:56:46;17.90;;;13.85;;
33421;SDS011;19763;55.798;37.782;2024-01-16T01:59:16;18.80;;;13.25;;
33421;SDS011;19763;55.798;37.782;2024-01-16T02:01:46;16.40;;;13.35;;
33421;SDS011;19763;55.798;37.782;2024-01-16T02:04:14;17.67;;;13.07;;
33421;SDS011;19763;55.798;37.782;2024-01-16T02:06:42;16.88;;;13.35;;
33421;SDS011;19763;55.798;37.782;2024-01-16T02:09:09;18.27;;;12.70;;
33421;SDS011;19763;55.798;37.782;2024-01-16T02:11:41;15.77;;;11.82;;
33421;SDS011;19763;55.798;37.782;2024-01-16T02:14:09;17.75;;;13.68;;
33421;SDS011;19763;55.798;37.782;2024-01-16T02:16:37;17.00;;;13.10;;
33421;SDS011;19763;55.798;37.782;2024-01-16T02:19:04;17.52;;;12.57;;
33421;SDS011;19763;55.798;37.782;2024-01-16T02:21:31;17.02;;;12.57;;
33421;SDS011;19763;55.798;37.782;2024-01-16T02:24:07;16.58;;;11.55;;
33421;SDS011;19763;55.798;37.782;2024-01-16T02:26:35;17.00;;;12.13;;
33421;SDS011;19763;55.798;37.782;2024-01-16T02:29:01;13.93;;;11.88;;
33421;SDS011;19763;55.798;37.782;2024-01-16T02:31:28;17.13;;;12.98;;
33421;SDS011;19763;55.798;37.782;2024-01-16T02:33:54;17.25;;;12.80;;
33421;SDS011;19763;55.798;37.782;2024-01-16T02:36:20;14.98;;;11.73;;
33421;SDS011;19763;55.798;37.782;2024-01-16T02:38:45;17.15;;;12.95;;
33421;SDS011;19763;55.798;37.782;2024-01-16T02:41:13;18.08;;;12.85;;
33421;SDS011;19763;55.798;37.782;2024-01-16T02:43:40;18.10;;;13.10;;
33421;SDS011;19763;55.798;37.782;2024-01-16T02:46:05;14.73;;;12.07;;
33421;SDS011;19763;55.798;37.782;2024-01-16T02:48:31;16.80;;;11.55;;
33421;SDS011;19763;55.798;37.782;2024-01-16T02:50:56;16.35;;;12.27;;
33421;SDS011;19763;55.798;37.782;2024-01-16T02:53:22;15.75;;;11.60;;
33421;SDS011;19763;55.798;37.782;2024-01-16T02:55:48;15.93;;;12.00;;
33421;SDS011;19763;55.798;37.782;2024-01-16T02:58:13;15.52;;;12.13;;
33421;SDS011;19763;55.798;37.782;2024-01-16T03:00:39;15.48;;;11.45;;
33421;SDS011;19763;55.798;37.782;2024-01-16T03:03:05;13.80;;;11.65;;
33421;SDS011;19763;55.798;37.782;2024-01-16T03:05:33;14.73;;;11.55;;
33421;SDS011;19763;55.798;37.782;2024-01-16T03:07:59;16.60;;;12.30;;
33421;SDS011;19763;55.798;37.782;2024-01-16T03:10:25;15.82;;;12.43;;
33421;SDS011;19763;55.798;37.782;2024-01-16T03:12:50;16.30;;;12.60;;
33421;SDS011;19763;55.798;37.782;2024-01-16T03:15:16;15.65;;;11.95;;
33421;SDS011;19763;55.798;37.782;2024-01-16T03:17:42;17.13;;;12.82;;
33421;SDS011;19763;55.798;37.782;2024-01-16T03:20:08;17.33;;;12.50;;
33421;SDS011;19763;55.798;37.782;2024-01-16T03:22:34;15.75;;;11.57;;
33421;SDS011;19763;55.798;37.782;2024-01-16T03:25:00;16.30;;;11.60;;
33421;SDS011;19763;55.798;37.782;2024-01-16T03:27:29;13.68;;;10.93;;
33421;SDS011;19763;55.798;37.782;2024-01-16T03:29:55;15.25;;;12.13;;
33421;SDS011;19763;55.798;37.782;2024-01-16T03:32:21;18.30;;;12.25;;
33421;SDS011;19763;55.798;37.782;2024-01-16T03:34:47;17.00;;;12.07;;
33421;SDS011;19763;55.798;37.782;2024-01-16T03:37:12;15.80;;;12.27;;
33421;SDS011;19763;55.798;37.782;2024-01-16T03:39:38;21.67;;;14.77;;
33421;SDS011;19763;55.798;37.782;2024-01-16T03:42:04;18.17;;;12.82;;
33421;SDS011;19763;55.798;37.782;2024-01-16T03:44:30;18.05;;;13.18;;
33421;SDS011;19763;55.798;37.782;2024-01-16T03:46:55;17.05;;;13.23;;
33421;SDS011;19763;55.798;37.782;2024-01-16T03:49:21;17.05;;;13.40;;
33421;SDS011;19763;55.798;37.782;2024-01-16T03:51:47;18.08;;;13.82;;
33421;SDS011;19763;55.798;37.782;2024-01-16T03:54:12;16.15;;;12.68;;
33421;SDS011;19763;55.798;37.782;2024-01-16T03:56:39;18.92;;;13.45;;
33421;SDS011;19763;55.798;37.782;2024-01-16T03:59:05;16.70;;;13.27;;
33421;SDS011;19763;55.798;37.782;2024-01-16T04:01:31;20.02;;;13.40;;
33421;SDS011;19763;55.798;37.782;2024-01-16T04:03:58;18.90;;;13.85;;
33421;SDS011;19763;55.798;37.782;2024-01-16T04:06:24;18.55;;;13.65;;
33421;SDS011;19763;55.798;37.782;2024-01-16T04:08:50;18.38;;;13.02;;
33421;SDS011;19763;55.798;37.782;2024-01-16T04:11:15;17.02;;;13.27;;
33421;SDS011;19763;55.798;37.782;2024-01-16T04:13:41;17.83;;;13.30;;
33421;SDS011;19763;55.798;37.782;2024-01-16T04:16:07;17.67;;;13.70;;
33421;SDS011;19763;55.798;37.782;2024-01-16T04:18:37;16.45;;;13.07;;
33421;SDS011;19763;55.798;37.782;2024-01-16T04:21:04;16.92;;;12.73;;
33421;SDS011;19763;55.798;37.782;2024-01-16T04:23:29;16.75;;;12.77;;
33421;SDS011;19763;55.798;37.782;2024-01-16T04:25:55;19.58;;;13.18;;
33421;SDS011;19763;55.798;37.782;2024-01-16T04:28:21;21.83;;;14.07;;
33421;SDS011;19763;55.798;37.782;2024-01-16T04:30:47;18.65;;;14.32;;
33421;SDS011;19763;55.798;37.782;2024-01-16T04:33:12;19.67;;;14.10;;
33421;SDS011;19763;55.798;37.782;2024-01-16T04:35:38;19.83;;;13.63;;
33421;SDS011;19763;55.798;37.782;2024-01-16T04:38:04;19.08;;;14.07;;
33421;SDS011;19763;55.798;37.782;2024-01-16T04:40:29;18.50;;;13.77;;
33421;SDS011;19763;55.798;37.782;2024-01-16T04:42:55;17.83;;;13.40;;
33421;SDS011;19763;55.798;37.782;2024-01-16T04:45:21;19.70;;;14.52;;
33421;SDS011;19763;55.798;37.782;2024-01-16T04:47:46;16.98;;;12.82;;
33421;SDS011;19763;55.798;37.782;2024-01-16T04:50:12;18.15;;;14.00;;
33421;SDS011;19763;55.798;37.782;2024-01-16T04:52:38;20.10;;;13.73;;
33421;SDS011;19763;55.798;37.782;2024-01-16T04:55:04;22.23;;;14.85;;
33421;SDS011;19763;55.798;37.782;2024-01-16T04:57:30;20.35;;;14.30;;
33421;SDS011;19763;55.798;37.782;2024-01-16T04:59:55;18.17;;;13.43;;
33421;SDS011;19763;55.798;37.782;2024-01-16T05:02:21;19.38;;;14.43;;
33421;SDS011;19763;55.798;37.782;2024-01-16T05:04:47;18.95;;;13.85;;
33421;SDS011;19763;55.798;37.782;2024-01-16T05:07:15;18.92;;;13.98;;
33421;SDS011;19763;55.798;37.782;2024-01-16T05:09:40;19.58;;;14.18;;
33421;SDS011;19763;55.798;37.782;2024-01-16T05:12:06;21.10;;;15.02;;
33421;SDS011;19763;55.798;37.782;2024-01-16T05:14:32;19.75;;;14.38;;
33421;SDS011;19763;55.798;37.782;2024-01-16T05:16:57;19.17;;;13.60;;
33421;SDS011;19763;55.798;37.782;2024-01-16T05:19:23;21.30;;;14.05;;
33421;SDS011;19763;55.798;37.782;2024-01-16T05:21:49;18.98;;;14.25;;
33421;SDS011;19763;55.798;37.782;2024-01-16T05:24:14;22.27;;;14.77;;
33421;SDS011;19763;55.798;37.782;2024-01-16T05:26:40;18.23;;;13.23;;
33421;SDS011;19763;55.798;37.782;2024-01-16T05:29:06;22.20;;;14.27;;
33421;SDS011;19763;55.798;37.782;2024-01-16T05:31:32;19.67;;;14.68;;
33421;SDS011;19763;55.798;37.782;2024-01-16T05:33:57;21.08;;;14.70;;
33421;SDS011;19763;55.798;37.782;2024-01-16T05:36:23;21.38;;;15.35;;
33421;SDS011;19763;55.798;37.782;2024-01-16T05:38:50;19.77;;;14.73;;
33421;SDS011;19763;55.798;37.782;2024-01-16T05:41:15;22.13;;;15.68;;
33421;SDS011;19763;55.798;37.782;2024-01-16T05:43:41;20.30;;;14.32;;
33421;SDS011;19763;55.798;37.782;2024-01-16T05:46:07;20.40;;;14.93;;
33421;SDS011;19763;55.798;37.782;2024-01-16T05:48:32;22.15;;;15.43;;
33421;SDS011;19763;55.798;37.782;2024-01-16T05:50:58;21.50;;;15.60;;
33421;SDS011;19763;55.798;37.782;2024-01-16T05:53:24;23.98;;;16.10;;
33421;SDS011;19763;55.798;37.782;2024-01-16T05:55:49;23.55;;;15.75;;
33421;SDS011;19763;55.798;37.782;2024-01-16T05:58:15;23.60;;;15.60;;
33421;SDS011;19763;55.798;37.782;2024-01-16T06:00:41;20.35;;;15.85;;
33421;SDS011;19763;55.798;37.782;2024-01-16T06:03:06;20.80;;;15.70;;
33421;SDS011;19763;55.798;37.782;2024-01-16T06:05:32;23.45;;;15.95;;
33421;SDS011;19763;55.798;37.782;2024-01-16T06:07:58;23.33;;;16.15;;
33421;SDS011;19763;55.798;37.782;2024-01-16T06:10:24;22.55;;;15.98;;
33421;SDS011;19763;55.798;37.782;2024-01-16T06:12:49;22.88;;;16.00;;
33421;SDS011;19763;55.798;37.782;2024-01-16T06:15:15;22.30;;;15.55;;
33421;SDS011;19763;55.798;37.782;2024-01-16T06:17:41;23.00;;;15.55;;
33421;SDS011;19763;55.798;37.782;2024-01-16T06:20:06;20.00;;;15.00;;
33421;SDS011;19763;55.798;37.782;2024-01-16T06:22:32;23.25;;;15.95;;
33421;SDS011;19763;55.798;37.782;2024-01-16T06:24:58;23.48;;;16.33;;
33421;SDS011;19763;55.798;37.782;2024-01-16T06:27:24;24.02;;;15.52;;
33421;SDS011;19763;55.798;37.782;2024-01-16T06:29:49;22.25;;;15.43;;
33421;SDS011;19763;55.798;37.782;2024-01-16T06:32:16;23.75;;;15.80;;
33421;SDS011;19763;55.798;37.782;2024-01-16T06:34:42;25.63;;;15.75;;
33421;SDS011;19763;55.798;37.782;2024-01-16T06:37:10;23.88;;;16.33;;
33421;SDS011;19763;55.798;37.782;2024-01-16T06:39:36;22.67;;;15.95;;
33421;SDS011;19763;55.798;37.782;2024-01-16T06:42:03;22.67;;;16.67;;
33421;SDS011;19763;55.798;37.782;2024-01-16T06:44:29;21.63;;;16.08;;
33421;SDS011;19763;55.798;37.782;2024-01-16T06:46:55;25.33;;;17.52;;
33421;SDS011;19763;55.798;37.782;2024-01-16T06:49:21;24.30;;;16.65;;
33421;SDS011;19763;55.798;37.782;2024-01-16T06:51:46;23.65;;;16.90;;
33421;SDS011;19763;55.798;37.782;2024-01-16T06:54:12;22.77;;;16.52;;
33421;SDS011;19763;55.798;37.782;2024-01-16T06:56:38;23.50;;;15.85;;
33421;SDS011;19763;55.798;37.782;2024-01-16T06:59:03;25.58;;;18.42;;
33421;SDS011;19763;55.798;37.782;2024-01-16T07:01:29;24.10;;;16.27;;
33421;SDS011;19763;55.798;37.782;2024-01-16T07:03:55;24.80;;;18.20;;
33421;SDS011;19763;55.798;37.782;2024-01-16T07:06:21;25.88;;;17.80;;
33421;SDS011;19763;55.798;37.782;2024-01-16T07:08:47;25.70;;;17.58;;
33421;SDS011;19763;55.798;37.782;2024-01-16T07:11:12;29.08;;;19.27;;
33421;SDS011;19763;55.798;37.782;2024-01-16T07:13:43;26.98;;;19.20;;
33421;SDS011;19763;55.798;37.782;2024-01-16T07:16:09;28.17;;;19.15;;
33421;SDS011;19763;55.798;37.782;2024-01-16T07:18:37;27.67;;;18.85;;
33421;SDS011;19763;55.798;37.782;2024-01-16T07:21:03;25.58;;;18.65;;
33421;SDS011;19763;55.798;37.782;2024-01-16T07:23:29;25.38;;;18.02;;
33421;SDS011;19763;55.798;37.782;2024-01-16T07:25:57;28.80;;;18.10;;
33421;SDS011;19763;55.798;37.782;2024-01-16T07:28:22;27.05;;;18.27;;
33421;SDS011;19763;55.798;37.782;2024-01-16T07:30:48;24.77;;;17.77;;
33421;SDS011;19763;55.798;37.782;2024-01-16T07:33:14;26.33;;;18.95;;
33421;SDS011;19763;55.798;37.782;2024-01-16T07:35:40;26.13;;;17.80;;
33421;SDS011;19763;55.798;37.782;2024-01-16T07:38:06;27.38;;;19.00;;
33421;SDS011;19763;55.798;37.782;2024-01-16T07:40:32;26.05;;;17.90;;
33421;SDS011;19763;55.798;37.782;2024-01-16T07:42:58;24.40;;;17.75;;
33421;SDS011;19763;55.798;37.782;2024-01-16T07:45:24;23.55;;;17.83;;
33421;SDS011;19763;55.798;37.782;2024-01-16T07:47:50;27.50;;;18.50;;
33421;SDS011;19763;55.798;37.782;2024-01-16T07:50:15;27.20;;;18.85;;
33421;SDS011;19763;55.798;37.782;2024-01-16T07:52:41;28.88;;;18.83;;
33421;SDS011;19763;55.798;37.782;2024-01-16T07:55:07;27.60;;;19.15;;
33421;SDS011;19763;55.798;37.782;2024-01-16T07:57:32;26.42;;;17.35;;
33421;SDS011;19763;55.798;37.782;2024-01-16T07:59:58;26.00;;;18.15;;
33421;SDS011;19763;55.798;37.782;2024-01-16T08:02:30;26.65;;;17.75;;
33421;SDS011;19763;55.798;37.782;2024-01-16T08:04:57;24.20;;;17.17;;
33421;SDS011;19763;55.798;37.782;2024-01-16T08:07:23;23.35;;;17.30;;
33421;SDS011;19763;55.798;37.782;2024-01-16T08:09:48;25.10;;;18.23;;
33421;SDS011;19763;55.798;37.782;2024-01-16T08:12:14;29.90;;;18.45;;
33421;SDS011;19763;55.798;37.782;2024-01-16T08:14:40;24.52;;;16.80;;
33421;SDS011;19763;55.798;37.782;2024-01-16T08:17:05;21.05;;;15.00;;
33421;SDS011;19763;55.798;37.782;2024-01-16T08:19:32;19.85;;;15.10;;
33421;SDS011;19763;55.798;37.782;2024-01-16T08:21:57;20.40;;;14.02;;
33421;SDS011;19763;55.798;37.782;2024-01-16T08:24:23;19.65;;;13.88;;
33421;SDS011;19763;55.798;37.782;2024-01-16T08:26:49;20.30;;;14.02;;
33421;SDS011;19763;55.798;37.782;2024-01-16T08:29:15;17.15;;;12.50;;
33421;SDS011;19763;55.798;37.782;2024-01-16T08:31:41;19.63;;;13.85;;
33421;SDS011;19763;55.798;37.782;2024-01-16T08:34:06;19.63;;;13.65;;
33421;SDS011;19763;55.798;37.782;2024-01-16T08:36:32;17.98;;;12.75;;
33421;SDS011;19763;55.798;37.782;2024-01-16T08:38:58;16.17;;;12.27;;
33421;SDS011;19763;55.798;37.782;2024-01-16T08:41:23;17.05;;;11.95;;
33421;SDS011;19763;55.798;37.782;2024-01-16T08:43:49;18.45;;;12.80;;
33421;SDS011;19763;55.798;37.782;2024-01-16T08:46:16;18.67;;;12.07;;
33421;SDS011;19763;55.798;37.782;2024-01-16T08:48:44;18.15;;;12.43;;
33421;SDS011;19763;55.798;37.782;2024-01-16T08:51:10;17.63;;;11.95;;
33421;SDS011;19763;55.798;37.782;2024-01-16T08:53:40;17.92;;;12.18;;
33421;SDS011;19763;55.798;37.782;2024-01-16T08:56:06;17.15;;;11.73;;
33421;SDS011;19763;55.798;37.782;2024-01-16T08:58:33;18.33;;;12.40;;
33421;SDS011;19763;55.798;37.782;2024-01-16T09:01:03;18.08;;;12.10;;
33421;SDS011;19763;55.798;37.782;2024-01-16T09:03:31;18.73;;;12.60;;
33421;SDS011;19763;55.798;37.782;2024-01-16T09:05:57;16.90;;;12.45;;
33421;SDS011;19763;55.798;37.782;2024-01-16T09:08:23;20.80;;;13.38;;
33421;SDS011;19763;55.798;37.782;2024-01-16T09:10:51;19.40;;;12.50;;
33421;SDS011;19763;55.798;37.782;2024-01-16T09:13:21;18.15;;;12.48;;
33421;SDS011;19763;55.798;37.782;2024-01-16T09:15:48;20.85;;;13.23;;
33421;SDS011;19763;55.798;37.782;2024-01-16T09:18:15;20.10;;;13.55;;
33421;SDS011;19763;55.798;37.782;2024-01-16T09:20:41;18.88;;;13.32;;
33421;SDS011;19763;55.798;37.782;2024-01-16T09:23:08;17.45;;;12.55;;
33421;SDS011;19763;55.798;37.782;2024-01-16T09:25:34;18.83;;;13.30;;
33421;SDS011;19763;55.798;37.782;2024-01-16T09:28:00;16.05;;;12.00;;
33421;SDS011;19763;55.798;37.782;2024-01-16T09:30:26;18.50;;;12.20;;
33421;SDS011;19763;55.798;37.782;2024-01-16T09:32:52;18.42;;;12.18;;
33421;SDS011;19763;55.798;37.782;2024-01-16T09:35:18;15.55;;;11.73;;
33421;SDS011;19763;55.798;37.782;2024-01-16T09:37:44;17.80;;;11.52;;
33421;SDS011;19763;55.798;37.782;2024-01-16T09:40:10;19.20;;;12.43;;
33421;SDS011;19763;55.798;37.782;2024-01-16T09:42:36;16.58;;;12.50;;
33421;SDS011;19763;55.798;37.782;2024-01-16T09:45:02;16.73;;;11.30;;
33421;SDS011;19763;55.798;37.782;2024-01-16T09:47:30;17.38;;;11.77;;
33421;SDS011;19763;55.798;37.782;2024-01-16T09:49:59;17.13;;;12.57;;
33421;SDS011;19763;55.798;37.782;2024-01-16T09:52:29;20.08;;;12.13;;
33421;SDS011;19763;55.798;37.782;2024-01-16T09:54:55;17.75;;;12.43;;
33421;SDS011;19763;55.798;37.782;2024-01-16T09:57:23;17.55;;;12.27;;
33421;SDS011;19763;55.798;37.782;2024-01-16T09:59:51;21.17;;;13.93;;
33421;SDS011;19763;55.798;37.782;2024-01-16T10:02:17;19.25;;;13.10;;
33421;SDS011;19763;55.798;37.782;2024-01-16T10:04:46;15.77;;;11.98;;
33421;SDS011;19763;55.798;37.782;2024-01-16T10:07:12;16.55;;;12.23;;
33421;SDS011;19763;55.798;37.782;2024-01-16T10:09:39;17.48;;;12.90;;
33421;SDS011;19763;55.798;37.782;2024-01-16T10:12:07;17.95;;;12.75;;
33421;SDS011;19763;55.798;37.782;2024-01-16T10:14:36;15.65;;;11.57;;
33421;SDS011;19763;55.798;37.782;2024-01-16T10:17:04;16.00;;;11.95;;
33421;SDS011;19763;55.798;37.782;2024-01-16T10:19:51;17.58;;;12.80;;
33421;SDS011;19763;55.798;37.782;2024-01-16T10:27:38;20.10;;;12.75;;
33421;SDS011;19763;55.798;37.782;2024-01-16T10:30:05;18.20;;;12.77;;
33421;SDS011;19763;55.798;37.782;2024-01-16T10:32:35;18.33;;;12.65;;
33421;SDS011;19763;55.798;37.782;2024-01-16T10:40:15;17.90;;;13.65;;
33421;SDS011;19763;55.798;37.782;2024-01-16T10:42:58;16.60;;;12.63;;
33421;SDS011;19763;55.798;37.782;2024-01-16T10:45:28;17.10;;;12.73;;
33421;SDS011;19763;55.798;37.782;2024-01-16T10:48:01;16.70;;;13.10;;
33421;SDS011;19763;55.798;37.782;2024-01-16T10:50:31;19.30;;;13.43;;
33421;SDS011;19763;55.798;37.782;2024-01-16T10:53:03;17.55;;;13.05;;
33421;SDS011;19763;55.798;37.782;2024-01-16T10:55:30;21.63;;;13.73;;
33421;SDS011;19763;55.798;37.782;2024-01-16T10:58:02;19.70;;;14.23;;
33421;SDS011;19763;55.798;37.782;2024-01-16T11:00:30;20.88;;;13.93;;
33421;SDS011;19763;55.798;37.782;2024-01-16T11:02:59;21.15;;;14.63;;
33421;SDS011;19763;55.798;37.782;2024-01-16T11:05:28;22.23;;;14.50;;
33421;SDS011;19763;55.798;37.782;2024-01-16T11:07:57;20.98;;;14.65;;
33421;SDS011;19763;55.798;37.782;2024-01-16T11:10:24;20.85;;;14.93;;
33421;SDS011;19763;55.798;37.782;2024-01-16T11:12:52;23.67;;;16.45;;
33421;SDS011;19763;55.798;37.782;2024-01-16T11:15:19;23.17;;;15.40;;
33421;SDS011;19763;55.798;37.782;2024-01-16T11:17:45;23.52;;;16.15;;
33421;SDS011;19763;55.798;37.782;2024-01-16T11:20:11;25.30;;;15.52;;
33421;SDS011;19763;55.798;37.782;2024-01-16T11:22:39;21.50;;;15.43;;
33421;SDS011;19763;55.798;37.782;2024-01-16T11:25:13;23.38;;;14.90;;
33421;SDS011;19763;55.798;37.782;2024-01-16T11:27:41;22.40;;;15.48;;
33421;SDS011;19763;55.798;37.782;2024-01-16T11:30:08;23.10;;;15.38;;
33421;SDS011;19763;55.798;37.782;2024-01-16T11:32:45;22.38;;;14.23;;
33421;SDS011;19763;55.798;37.782;2024-01-16T11:35:10;23.30;;;15.57;;
33421;SDS011;19763;55.798;37.782;2024-01-16T11:37:41;25.65;;;16.23;;
33421;SDS011;19763;55.798;37.782;2024-01-16T11:42:46;23.10;;;15.48;;
33421;SDS011;19763;55.798;37.782;2024-01-16T11:48:09;22.20;;;15.18;;
33421;SDS011;19763;55.798;37.782;2024-01-16T11:50:35;26.40;;;16.42;;
33421;SDS011;19763;55.798;37.782;2024-01-16T11:53:02;23.90;;;14.52;;
33421;SDS011;19763;55.798;37.782;2024-01-16T11:55:29;23.95;;;15.82;;
33421;SDS011;19763;55.798;37.782;2024-01-16T12:00:30;21.85;;;15.52;;
33421;SDS011;19763;55.798;37.782;2024-01-16T12:02:59;22.33;;;15.57;;
33421;SDS011;19763;55.798;37.782;2024-01-16T12:05:28;23.88;;;16.00;;
33421;SDS011;19763;55.798;37.782;2024-01-16T12:07:54;22.30;;;15.32;;
33421;SDS011;19763;55.798;37.782;2024-01-16T12:10:21;23.65;;;16.45;;
33421;SDS011;19763;55.798;37.782;2024-01-16T12:12:48;26.30;;;15.80;;
33421;SDS011;19763;55.798;37.782;2024-01-16T12:15:19;24.27;;;15.98;;
33421;SDS011;19763;55.798;37.782;2024-01-16T12:17:53;21.20;;;15.10;;
33421;SDS011;19763;55.798;37.782;2024-01-16T12:20:21;20.90;;;15.65;;
33421;SDS011;19763;55.798;37.782;2024-01-16T12:22:52;23.50;;;15.13;;
33421;SDS011;19763;55.798;37.782;2024-01-16T12:25:36;22.13;;;16.15;;
33421;SDS011;19763;55.798;37.782;2024-01-16T12:28:04;19.48;;;14.40;;
33421;SDS011;19763;55.798;37.782;2024-01-16T12:30:33;26.15;;;16.08;;
33421;SDS011;19763;55.798;37.782;2024-01-16T12:35:36;22.25;;;15.60;;
33421;SDS011;19763;55.798;37.782;2024-01-16T12:38:06;23.98;;;16.98;;
33421;SDS011;19763;55.798;37.782;2024-01-16T12:40:56;21.02;;;15.02;;
33421;SDS011;19763;55.798;37.782;2024-01-16T12:43:22;20.17;;;14.63;;
33421;SDS011;19763;55.798;37.782;2024-01-16T12:45:57;21.60;;;14.75;;
33421;SDS011;19763;55.798;37.782;2024-01-16T12:48:23;21.73;;;14.95;;
33421;SDS011;19763;55.798;37.782;2024-01-16T12:50:50;24.48;;;15.40;;
33421;SDS011;19763;55.798;37.782;2024-01-16T12:53:16;22.25;;;15.73;;
33421;SDS011;19763;55.798;37.782;2024-01-16T12:55:44;23.52;;;15.27;;
33421;SDS011;19763;55.798;37.782;2024-01-16T12:58:20;22.00;;;15.25;;
33421;SDS011;19763;55.798;37.782;2024-01-16T13:00:50;22.38;;;15.52;;
33421;SDS011;19763;55.798;37.782;2024-01-16T13:03:18;23.38;;;15.23;;
33421;SDS011;19763;55.798;37.782;2024-01-16T13:05:55;19.80;;;15.00;;
33421;SDS011;19763;55.798;37.782;2024-01-16T13:08:26;21.77;;;14.52;;
33421;SDS011;19763;55.798;37.782;2024-01-16T13:11:02;21.67;;;14.43;;
33421;SDS011;19763;55.798;37.782;2024-01-16T13:13:29;24.02;;;15.02;;
33421;SDS011;19763;55.798;37.782;2024-01-16T13:15:55;23.50;;;15.75;;
33421;SDS011;19763;55.798;37.782;2024-01-16T13:18:23;21.20;;;14.63;;
33421;SDS011;19763;55.798;37.782;2024-01-16T13:20:51;21.75;;;14.95;;
33421;SDS011;19763;55.798;37.782;2024-01-16T13:23:19;23.02;;;14.82;;
33421;SDS011;19763;55.798;37.782;2024-01-16T13:25:46;25.52;;;15.05;;
33421;SDS011;19763;55.798;37.782;2024-01-16T13:28:13;21.45;;;15.20;;
33421;SDS011;19763;55.798;37.782;2024-01-16T13:30:39;21.73;;;15.00;;
33421;SDS011;19763;55.798;37.782;2024-01-16T13:33:06;24.73;;;15.77;;
33421;SDS011;19763;55.798;37.782;2024-01-16T13:35:37;25.60;;;14.82;;
33421;SDS011;19763;55.798;37.782;2024-01-16T13:38:05;19.83;;;13.95;;
33421;SDS011;19763;55.798;37.782;2024-01-16T13:40:32;23.70;;;15.68;;
33421;SDS011;19763;55.798;37.782;2024-01-16T13:43:01;21.92;;;15.40;;
33421;SDS011;19763;55.798;37.782;2024-01-16T13:45:27;22.65;;;16.42;;
33421;SDS011;19763;55.798;37.782;2024-01-16T13:47:54;21.90;;;15.65;;
33421;SDS011;19763;55.798;37.782;2024-01-16T13:50:20;21.67;;;15.23;;
33421;SDS011;19763;55.798;37.782;2024-01-16T13:52:47;23.52;;;15.90;;
33421;SDS011;19763;55.798;37.782;2024-01-16T13:55:12;22.33;;;15.77;;
33421;SDS011;19763;55.798;37.782;2024-01-16T13:57:39;21.48;;;15.07;;
33421;SDS011;19763;55.798;37.782;2024-01-16T14:00:06;20.52;;;14.52;;
33421;SDS011;19763;55.798;37.782;2024-01-16T14:02:34;21.40;;;15.50;;
33421;SDS011;19763;55.798;37.782;2024-01-16T14:05:02;22.95;;;15.98;;
33421;SDS011;19763;55.798;37.782;2024-01-16T14:07:31;21.65;;;15.27;;
33421;SDS011;19763;55.798;37.782;2024-01-16T14:09:57;26.23;;;17.00;;
33421;SDS011;19763;55.798;37.782;2024-01-16T14:12:23;18.95;;;14.52;;
33421;SDS011;19763;55.798;37.782;2024-01-16T14:14:50;18.70;;;14.48;;
33421;SDS011;19763;55.798;37.782;2024-01-16T14:17:16;19.92;;;14.68;;
33421;SDS011;19763;55.798;37.782;2024-01-16T14:19:42;20.42;;;14.13;;
33421;SDS011;19763;55.798;37.782;2024-01-16T14:22:08;19.17;;;13.82;;
33421;SDS011;19763;55.798;37.782;2024-01-16T14:24:34;20.10;;;14.70;;
33421;SDS011;19763;55.798;37.782;2024-01-16T14:26:59;19.23;;;14.18;;
33421;SDS011;19763;55.798;37.782;2024-01-16T14:29:25;18.65;;;14.60;;